sensor_id;sensor_type;location;lat;lon;timestamp;P1;durP1;ratioP1;P2;durP2;ratioP2
23684;SDS011;12020;51.384;6.908;2023-06-14T00:00:47;6.60;;;6.00;;
23684;SDS011;12020;51.384;6.908;2023-06-14T00:03:14;6.63;;;5.93;;
23684;SDS011;12020;51.384;6.908;2023-06-14T00:05:45;7.20;;;6.50;;
23684;SDS011;12020;51.384;6.908;2023-06-14T00:08:14;9.15;;;6.25;;
23684;SDS011;12020;51.384;6.908;2023-06-14T00:10:41;8.43;;;6.30;;
23684;SDS011;12020;51.384;6.908;2023-06-14T00:15:47;8.95;;;6.60;;
23684;SDS011;12020;51.384;6.908;2023-06-14T00:18:24;7.90;;;6.68;;
23684;SDS011;12020;51.384;6.908;2023-06-14T00:20:57;8.57;;;6.00;;
23684;SDS011;12020;51.384;6.908;2023-06-14T00:23:35;7.27;;;5.87;;
23684;SDS011;12020;51.384;6.908;2023-06-14T00:26:05;6.17;;;5.57;;
23684;SDS011;12020;51.384;6.908;2023-06-14T00:28:31;6.10;;;5.50;;
23684;SDS011;12020;51.384;6.908;2023-06-14T00:31:03;8.07;;;6.07;;
23684;SDS011;12020;51.384;6.908;2023-06-14T00:33:31;9.87;;;6.20;;
23684;SDS011;12020;51.384;6.908;2023-06-14T00:35:58;7.03;;;5.73;;
23684;SDS011;12020;51.384;6.908;2023-06-14T00:38:25;6.20;;;5.60;;
23684;SDS011;12020;51.384;6.908;2023-06-14T00:41:04;8.10;;;5.80;;
23684;SDS011;12020;51.384;6.908;2023-06-14T00:43:32;7.90;;;6.40;;
23684;SDS011;12020;51.384;6.908;2023-06-14T00:46:02;6.83;;;5.47;;
23684;SDS011;12020;51.384;6.908;2023-06-14T00:48:40;8.20;;;5.47;;
23684;SDS011;12020;51.384;6.908;2023-06-14T00:51:11;6.73;;;5.33;;
23684;SDS011;12020;51.384;6.908;2023-06-14T00:53:39;6.73;;;5.80;;
23684;SDS011;12020;51.384;6.908;2023-06-14T00:56:21;7.30;;;5.20;;
23684;SDS011;12020;51.384;6.908;2023-06-14T00:58:56;11.33;;;5.77;;
23684;SDS011;12020;51.384;6.908;2023-06-14T01:01:26;5.73;;;5.13;;
23684;SDS011;12020;51.384;6.908;2023-06-14T01:03:58;8.53;;;5.87;;
23684;SDS011;12020;51.384;6.908;2023-06-14T01:15:25;6.33;;;5.70;;
23684;SDS011;12020;51.384;6.908;2023-06-14T01:17:54;6.63;;;5.63;;
23684;SDS011;12020;51.384;6.908;2023-06-14T01:20:22;8.67;;;5.40;;
23684;SDS011;12020;51.384;6.908;2023-06-14T01:23:06;6.90;;;5.40;;
23684;SDS011;12020;51.384;6.908;2023-06-14T01:25:47;7.70;;;5.87;;
23684;SDS011;12020;51.384;6.908;2023-06-14T01:28:19;6.07;;;5.47;;
23684;SDS011;12020;51.384;6.908;2023-06-14T01:30:52;6.73;;;5.60;;
23684;SDS011;12020;51.384;6.908;2023-06-14T01:33:29;7.63;;;5.77;;
23684;SDS011;12020;51.384;6.908;2023-06-14T01:36:00;8.73;;;5.63;;
23684;SDS011;12020;51.384;6.908;2023-06-14T01:38:29;6.63;;;5.70;;
23684;SDS011;12020;51.384;6.908;2023-06-14T01:40:58;5.50;;;5.00;;
23684;SDS011;12020;51.384;6.908;2023-06-14T01:43:30;8.37;;;5.60;;
23684;SDS011;12020;51.384;6.908;2023-06-14T01:46:08;6.07;;;5.43;;
23684;SDS011;12020;51.384;6.908;2023-06-14T01:48:40;6.33;;;5.63;;
23684;SDS011;12020;51.384;6.908;2023-06-14T01:53:36;8.83;;;5.80;;
23684;SDS011;12020;51.384;6.908;2023-06-14T01:56:14;7.83;;;6.23;;
23684;SDS011;12020;51.384;6.908;2023-06-14T01:58:42;7.10;;;6.40;;
23684;SDS011;12020;51.384;6.908;2023-06-14T02:01:09;7.10;;;6.40;;
23684;SDS011;12020;51.384;6.908;2023-06-14T03:08:19;6.67;;;5.67;;
23684;SDS011;12020;51.384;6.908;2023-06-14T03:10:56;6.87;;;5.03;;
23684;SDS011;12020;51.384;6.908;2023-06-14T03:16:16;6.60;;;5.27;;
23684;SDS011;12020;51.384;6.908;2023-06-14T03:19:04;5.87;;;5.20;;
23684;SDS011;12020;51.384;6.908;2023-06-14T03:24:11;6.97;;;5.27;;
23684;SDS011;12020;51.384;6.908;2023-06-14T03:26:40;7.07;;;6.30;;
23684;SDS011;12020;51.384;6.908;2023-06-14T03:29:26;7.20;;;5.63;;
23684;SDS011;12020;51.384;6.908;2023-06-14T03:32:00;6.03;;;5.53;;
23684;SDS011;12020;51.384;6.908;2023-06-14T03:34:27;5.80;;;5.27;;
23684;SDS011;12020;51.384;6.908;2023-06-14T03:36:59;6.67;;;6.00;;
23684;SDS011;12020;51.384;6.908;2023-06-14T03:39:24;5.90;;;5.30;;
23684;SDS011;12020;51.384;6.908;2023-06-14T03:41:56;7.27;;;5.50;;
23684;SDS011;12020;51.384;6.908;2023-06-14T03:44:31;6.37;;;5.53;;
23684;SDS011;12020;51.384;6.908;2023-06-14T03:49:29;9.00;;;5.80;;
23684;SDS011;12020;51.384;6.908;2023-06-14T03:52:01;6.30;;;5.70;;
23684;SDS011;12020;51.384;6.908;2023-06-14T03:54:30;6.43;;;5.30;;
23684;SDS011;12020;51.384;6.908;2023-06-14T03:56:59;8.13;;;5.70;;
23684;SDS011;12020;51.384;6.908;2023-06-14T03:59:29;5.70;;;5.20;;
23684;SDS011;12020;51.384;6.908;2023-06-14T04:01:55;8.77;;;5.33;;
23684;SDS011;12020;51.384;6.908;2023-06-14T04:04:27;7.90;;;5.23;;
23684;SDS011;12020;51.384;6.908;2023-06-14T04:06:55;6.40;;;5.23;;
23684;SDS011;12020;51.384;6.908;2023-06-14T04:09:31;6.70;;;5.47;;
23684;SDS011;12020;51.384;6.908;2023-06-14T04:11:58;6.30;;;5.13;;
23684;SDS011;12020;51.384;6.908;2023-06-14T04:14:25;6.17;;;4.80;;
23684;SDS011;12020;51.384;6.908;2023-06-14T04:17:05;7.70;;;5.50;;
23684;SDS011;12020;51.384;6.908;2023-06-14T04:19:32;6.87;;;4.87;;
23684;SDS011;12020;51.384;6.908;2023-06-14T04:22:04;5.53;;;5.03;;
23684;SDS011;12020;51.384;6.908;2023-06-14T04:24:31;5.43;;;4.93;;
23684;SDS011;12020;51.384;6.908;2023-06-14T04:26:58;6.87;;;4.87;;
23684;SDS011;12020;51.384;6.908;2023-06-14T04:29:28;5.73;;;5.13;;
23684;SDS011;12020;51.384;6.908;2023-06-14T04:31:55;6.80;;;4.90;;
23684;SDS011;12020;51.384;6.908;2023-06-14T04:39:40;4.83;;;4.10;;
23684;SDS011;12020;51.384;6.908;2023-06-14T04:42:11;6.23;;;4.73;;
23684;SDS011;12020;51.384;6.908;2023-06-14T04:44:46;5.17;;;4.20;;
23684;SDS011;12020;51.384;6.908;2023-06-14T04:47:14;5.47;;;4.33;;
23684;SDS011;12020;51.384;6.908;2023-06-14T04:52:31;6.83;;;4.77;;
23684;SDS011;12020;51.384;6.908;2023-06-14T04:59:57;5.53;;;4.70;;
23684;SDS011;12020;51.384;6.908;2023-06-14T05:02:23;6.57;;;4.63;;
23684;SDS011;12020;51.384;6.908;2023-06-14T05:04:57;8.20;;;4.57;;
23684;SDS011;12020;51.384;6.908;2023-06-14T05:07:27;5.83;;;4.20;;
23684;SDS011;12020;51.384;6.908;2023-06-14T05:12:23;4.77;;;3.93;;
23684;SDS011;12020;51.384;6.908;2023-06-14T05:17:45;4.47;;;4.07;;
23684;SDS011;12020;51.384;6.908;2023-06-14T05:44:12;5.77;;;4.20;;
23684;SDS011;12020;51.384;6.908;2023-06-14T05:46:40;4.70;;;4.00;;
23684;SDS011;12020;51.384;6.908;2023-06-14T05:51:41;4.07;;;3.67;;
23684;SDS011;12020;51.384;6.908;2023-06-14T05:54:09;3.80;;;3.37;;
23684;SDS011;12020;51.384;6.908;2023-06-14T05:56:43;5.05;;;3.88;;
23684;SDS011;12020;51.384;6.908;2023-06-14T06:07:08;6.60;;;3.97;;
23684;SDS011;12020;51.384;6.908;2023-06-14T06:09:35;5.63;;;3.80;;
23684;SDS011;12020;51.384;6.908;2023-06-14T06:12:04;4.40;;;3.95;;
23684;SDS011;12020;51.384;6.908;2023-06-14T06:14:33;5.67;;;3.97;;
23684;SDS011;12020;51.384;6.908;2023-06-14T06:16:59;6.07;;;4.15;;
23684;SDS011;12020;51.384;6.908;2023-06-14T06:19:25;6.55;;;3.95;;
23684;SDS011;12020;51.384;6.908;2023-06-14T06:21:51;4.53;;;3.72;;
23684;SDS011;12020;51.384;6.908;2023-06-14T06:24:17;6.10;;;3.87;;
23684;SDS011;12020;51.384;6.908;2023-06-14T06:26:43;7.27;;;3.77;;
23684;SDS011;12020;51.384;6.908;2023-06-14T06:29:11;4.93;;;3.17;;
23684;SDS011;12020;51.384;6.908;2023-06-14T06:31:38;5.63;;;3.70;;
23684;SDS011;12020;51.384;6.908;2023-06-14T06:34:10;4.50;;;3.58;;
23684;SDS011;12020;51.384;6.908;2023-06-14T06:36:43;5.03;;;3.40;;
23684;SDS011;12020;51.384;6.908;2023-06-14T06:39:10;4.43;;;3.30;;
23684;SDS011;12020;51.384;6.908;2023-06-14T06:41:42;6.20;;;3.67;;
23684;SDS011;12020;51.384;6.908;2023-06-14T06:44:20;3.90;;;2.70;;
23684;SDS011;12020;51.384;6.908;2023-06-14T06:46:46;3.92;;;3.15;;
23684;SDS011;12020;51.384;6.908;2023-06-14T06:49:11;4.05;;;3.03;;
23684;SDS011;12020;51.384;6.908;2023-06-14T06:54:11;6.00;;;2.80;;
23684;SDS011;12020;51.384;6.908;2023-06-14T06:56:48;4.33;;;2.83;;
23684;SDS011;12020;51.384;6.908;2023-06-14T06:59:14;4.22;;;2.75;;
23684;SDS011;12020;51.384;6.908;2023-06-14T07:01:47;5.07;;;2.67;;
23684;SDS011;12020;51.384;6.908;2023-06-14T07:04:18;5.63;;;2.60;;
23684;SDS011;12020;51.384;6.908;2023-06-14T07:06:44;3.90;;;2.57;;
23684;SDS011;12020;51.384;6.908;2023-06-14T07:09:12;3.97;;;2.58;;
23684;SDS011;12020;51.384;6.908;2023-06-14T07:11:45;3.78;;;2.40;;
23684;SDS011;12020;51.384;6.908;2023-06-14T07:14:14;4.25;;;2.60;;
23684;SDS011;12020;51.384;6.908;2023-06-14T07:16:40;4.03;;;2.53;;
23684;SDS011;12020;51.384;6.908;2023-06-14T07:19:07;3.63;;;2.37;;
23684;SDS011;12020;51.384;6.908;2023-06-14T07:58:12;1.88;;;1.67;;
23684;SDS011;12020;51.384;6.908;2023-06-14T08:00:38;2.47;;;2.00;;
23684;SDS011;12020;51.384;6.908;2023-06-14T08:03:04;4.10;;;1.80;;
23684;SDS011;12020;51.384;6.908;2023-06-14T08:05:31;2.50;;;1.90;;
23684;SDS011;12020;51.384;6.908;2023-06-14T08:07:57;3.30;;;1.80;;
23684;SDS011;12020;51.384;6.908;2023-06-14T08:10:25;2.70;;;1.80;;
23684;SDS011;12020;51.384;6.908;2023-06-14T08:12:50;2.88;;;2.00;;
23684;SDS011;12020;51.384;6.908;2023-06-14T08:15:17;3.47;;;1.83;;
23684;SDS011;12020;51.384;6.908;2023-06-14T08:17:43;6.97;;;1.87;;
23684;SDS011;12020;51.384;6.908;2023-06-14T08:20:09;2.90;;;1.90;;
23684;SDS011;12020;51.384;6.908;2023-06-14T08:22:36;5.27;;;2.20;;
23684;SDS011;12020;51.384;6.908;2023-06-14T08:25:02;2.05;;;1.80;;
23684;SDS011;12020;51.384;6.908;2023-06-14T08:27:29;5.00;;;2.00;;
23684;SDS011;12020;51.384;6.908;2023-06-14T08:29:55;4.10;;;2.05;;
23684;SDS011;12020;51.384;6.908;2023-06-14T08:34:51;3.40;;;2.00;;
23684;SDS011;12020;51.384;6.908;2023-06-14T08:37:16;3.00;;;1.80;;
23684;SDS011;12020;51.384;6.908;2023-06-14T08:39:43;4.93;;;1.90;;
23684;SDS011;12020;51.384;6.908;2023-06-14T08:42:10;2.33;;;1.75;;
23684;SDS011;12020;51.384;6.908;2023-06-14T08:44:37;3.33;;;1.92;;
23684;SDS011;12020;51.384;6.908;2023-06-14T08:47:03;3.13;;;2.10;;
23684;SDS011;12020;51.384;6.908;2023-06-14T08:49:32;2.47;;;1.80;;
23684;SDS011;12020;51.384;6.908;2023-06-14T08:51:59;3.83;;;1.80;;
23684;SDS011;12020;51.384;6.908;2023-06-14T08:54:29;3.33;;;1.92;;
23684;SDS011;12020;51.384;6.908;2023-06-14T08:57:00;4.30;;;1.90;;
23684;SDS011;12020;51.384;6.908;2023-06-14T08:59:29;3.80;;;2.00;;
23684;SDS011;12020;51.384;6.908;2023-06-14T09:01:58;3.28;;;1.80;;
23684;SDS011;12020;51.384;6.908;2023-06-14T09:04:27;3.08;;;2.10;;
23684;SDS011;12020;51.384;6.908;2023-06-14T09:06:54;2.10;;;1.90;;
23684;SDS011;12020;51.384;6.908;2023-06-14T09:09:21;2.63;;;2.10;;
23684;SDS011;12020;51.384;6.908;2023-06-14T09:11:48;2.95;;;2.00;;
23684;SDS011;12020;51.384;6.908;2023-06-14T09:14:15;3.07;;;1.90;;
23684;SDS011;12020;51.384;6.908;2023-06-14T09:16:42;8.27;;;2.40;;
23684;SDS011;12020;51.384;6.908;2023-06-14T09:19:08;2.20;;;2.00;;
23684;SDS011;12020;51.384;6.908;2023-06-14T09:24:12;3.30;;;2.00;;
23684;SDS011;12020;51.384;6.908;2023-06-14T09:26:41;3.70;;;1.88;;
23684;SDS011;12020;51.384;6.908;2023-06-14T09:29:06;4.22;;;1.85;;
23684;SDS011;12020;51.384;6.908;2023-06-14T09:31:35;4.25;;;1.80;;
23684;SDS011;12020;51.384;6.908;2023-06-14T09:34:02;3.83;;;1.95;;
23684;SDS011;12020;51.384;6.908;2023-06-14T09:36:28;2.78;;;1.92;;
23684;SDS011;12020;51.384;6.908;2023-06-14T09:38:57;3.90;;;1.73;;
23684;SDS011;12020;51.384;6.908;2023-06-14T09:41:30;2.78;;;1.65;;
23684;SDS011;12020;51.384;6.908;2023-06-14T09:44:01;3.03;;;1.60;;
23684;SDS011;12020;51.384;6.908;2023-06-14T09:46:29;1.73;;;1.50;;
23684;SDS011;12020;51.384;6.908;2023-06-14T09:48:58;3.28;;;1.73;;
23684;SDS011;12020;51.384;6.908;2023-06-14T09:51:25;3.30;;;1.70;;
23684;SDS011;12020;51.384;6.908;2023-06-14T09:53:52;2.00;;;1.70;;
23684;SDS011;12020;51.384;6.908;2023-06-14T09:58:57;1.77;;;1.50;;
23684;SDS011;12020;51.384;6.908;2023-06-14T10:01:24;1.90;;;1.40;;
23684;SDS011;12020;51.384;6.908;2023-06-14T10:03:54;2.33;;;1.33;;
23684;SDS011;12020;51.384;6.908;2023-06-14T10:06:23;1.48;;;1.35;;
23684;SDS011;12020;51.384;6.908;2023-06-14T10:08:55;4.10;;;1.40;;
23684;SDS011;12020;51.384;6.908;2023-06-14T10:11:23;1.40;;;1.30;;
23684;SDS011;12020;51.384;6.908;2023-06-14T10:13:57;3.00;;;1.50;;
23684;SDS011;12020;51.384;6.908;2023-06-14T10:21:46;3.23;;;1.70;;
23684;SDS011;12020;51.384;6.908;2023-06-14T10:24:15;2.20;;;1.58;;
23684;SDS011;12020;51.384;6.908;2023-06-14T10:26:54;1.93;;;1.50;;
23684;SDS011;12020;51.384;6.908;2023-06-14T10:29:22;2.83;;;1.73;;
23684;SDS011;12020;51.384;6.908;2023-06-14T10:31:48;2.57;;;1.33;;
23684;SDS011;12020;51.384;6.908;2023-06-14T10:34:25;1.98;;;1.33;;
23684;SDS011;12020;51.384;6.908;2023-06-14T10:37:05;3.35;;;1.15;;
23684;SDS011;12020;51.384;6.908;2023-06-14T10:39:39;2.40;;;1.10;;
23684;SDS011;12020;51.384;6.908;2023-06-14T10:42:10;2.35;;;1.10;;
23684;SDS011;12020;51.384;6.908;2023-06-14T10:44:41;3.05;;;1.30;;
23684;SDS011;12020;51.384;6.908;2023-06-14T10:47:21;1.60;;;0.98;;
23684;SDS011;12020;51.384;6.908;2023-06-14T10:49:52;3.40;;;1.20;;
23684;SDS011;12020;51.384;6.908;2023-06-14T10:52:26;1.85;;;1.30;;
23684;SDS011;12020;51.384;6.908;2023-06-14T10:55:10;1.58;;;1.17;;
23684;SDS011;12020;51.384;6.908;2023-06-14T10:57:49;2.23;;;1.23;;
23684;SDS011;12020;51.384;6.908;2023-06-14T11:00:23;1.73;;;1.40;;
23684;SDS011;12020;51.384;6.908;2023-06-14T11:05:23;2.17;;;1.25;;
23684;SDS011;12020;51.384;6.908;2023-06-14T11:10:52;1.73;;;1.30;;
23684;SDS011;12020;51.384;6.908;2023-06-14T11:13:24;2.15;;;1.50;;
23684;SDS011;12020;51.384;6.908;2023-06-14T11:15:50;3.40;;;1.35;;
23684;SDS011;12020;51.384;6.908;2023-06-14T11:18:18;2.33;;;1.30;;
23684;SDS011;12020;51.384;6.908;2023-06-14T11:20:49;2.03;;;1.40;;
23684;SDS011;12020;51.384;6.908;2023-06-14T11:23:16;1.83;;;1.10;;
23684;SDS011;12020;51.384;6.908;2023-06-14T11:25:41;2.35;;;1.60;;
23684;SDS011;12020;51.384;6.908;2023-06-14T11:28:07;1.90;;;1.40;;
23684;SDS011;12020;51.384;6.908;2023-06-14T11:30:33;2.60;;;1.30;;
23684;SDS011;12020;51.384;6.908;2023-06-14T11:32:59;3.22;;;1.50;;
23684;SDS011;12020;51.384;6.908;2023-06-14T11:35:25;2.80;;;1.20;;
23684;SDS011;12020;51.384;6.908;2023-06-14T11:37:54;2.47;;;1.40;;
23684;SDS011;12020;51.384;6.908;2023-06-14T11:40:24;2.05;;;1.30;;
23684;SDS011;12020;51.384;6.908;2023-06-14T11:42:57;2.37;;;1.60;;
23684;SDS011;12020;51.384;6.908;2023-06-14T11:45:24;5.50;;;1.35;;
23684;SDS011;12020;51.384;6.908;2023-06-14T11:47:50;2.17;;;1.27;;
23684;SDS011;12020;51.384;6.908;2023-06-14T11:50:16;1.85;;;1.23;;
23684;SDS011;12020;51.384;6.908;2023-06-14T11:52:42;2.40;;;1.20;;
23684;SDS011;12020;51.384;6.908;2023-06-14T11:55:07;3.03;;;1.40;;
23684;SDS011;12020;51.384;6.908;2023-06-14T11:57:34;2.45;;;1.30;;
23684;SDS011;12020;51.384;6.908;2023-06-14T12:00:03;1.85;;;1.23;;
23684;SDS011;12020;51.384;6.908;2023-06-14T12:02:32;2.35;;;1.40;;
23684;SDS011;12020;51.384;6.908;2023-06-14T12:05:04;1.75;;;1.30;;
23684;SDS011;12020;51.384;6.908;2023-06-14T12:07:32;2.75;;;1.40;;
23684;SDS011;12020;51.384;6.908;2023-06-14T12:12:24;1.95;;;1.27;;
23684;SDS011;12020;51.384;6.908;2023-06-14T12:14:50;3.75;;;1.38;;
23684;SDS011;12020;51.384;6.908;2023-06-14T12:17:17;1.95;;;1.27;;
23684;SDS011;12020;51.384;6.908;2023-06-14T12:19:43;5.50;;;1.40;;
23684;SDS011;12020;51.384;6.908;2023-06-14T12:22:11;5.13;;;1.40;;
23684;SDS011;12020;51.384;6.908;2023-06-14T12:24:38;3.00;;;1.45;;
23684;SDS011;12020;51.384;6.908;2023-06-14T12:27:04;2.80;;;1.40;;
23684;SDS011;12020;51.384;6.908;2023-06-14T12:29:30;2.67;;;1.40;;
23684;SDS011;12020;51.384;6.908;2023-06-14T12:31:56;1.77;;;1.43;;
23684;SDS011;12020;51.384;6.908;2023-06-14T12:34:23;2.72;;;1.52;;
23684;SDS011;12020;51.384;6.908;2023-06-14T12:36:50;2.30;;;1.50;;
23684;SDS011;12020;51.384;6.908;2023-06-14T12:39:16;4.15;;;1.50;;
23684;SDS011;12020;51.384;6.908;2023-06-14T12:41:42;2.70;;;1.40;;
23684;SDS011;12020;51.384;6.908;2023-06-14T12:44:07;2.30;;;1.50;;
23684;SDS011;12020;51.384;6.908;2023-06-14T12:46:34;2.30;;;1.53;;
23684;SDS011;12020;51.384;6.908;2023-06-14T12:49:00;2.47;;;1.60;;
23684;SDS011;12020;51.384;6.908;2023-06-14T12:51:28;3.08;;;1.60;;
23684;SDS011;12020;51.384;6.908;2023-06-14T12:53:53;1.98;;;1.40;;
23684;SDS011;12020;51.384;6.908;2023-06-14T12:56:19;1.80;;;1.57;;
23684;SDS011;12020;51.384;6.908;2023-06-14T12:58:45;2.58;;;1.50;;
23684;SDS011;12020;51.384;6.908;2023-06-14T13:01:10;2.33;;;1.70;;
23684;SDS011;12020;51.384;6.908;2023-06-14T13:03:36;3.60;;;1.70;;
23684;SDS011;12020;51.384;6.908;2023-06-14T13:06:02;3.40;;;1.80;;
23684;SDS011;12020;51.384;6.908;2023-06-14T13:08:29;3.55;;;2.00;;
23684;SDS011;12020;51.384;6.908;2023-06-14T13:10:56;3.42;;;1.92;;
23684;SDS011;12020;51.384;6.908;2023-06-14T13:13:22;2.50;;;1.60;;
23684;SDS011;12020;51.384;6.908;2023-06-14T13:15:49;2.17;;;1.90;;
23684;SDS011;12020;51.384;6.908;2023-06-14T13:18:18;2.72;;;1.90;;
23684;SDS011;12020;51.384;6.908;2023-06-14T13:20:45;3.23;;;1.90;;
23684;SDS011;12020;51.384;6.908;2023-06-14T13:23:15;3.47;;;2.00;;
23684;SDS011;12020;51.384;6.908;2023-06-14T13:25:42;4.50;;;1.90;;
23684;SDS011;12020;51.384;6.908;2023-06-14T13:28:09;1.92;;;1.77;;
23684;SDS011;12020;51.384;6.908;2023-06-14T13:30:34;2.90;;;1.90;;
23684;SDS011;12020;51.384;6.908;2023-06-14T13:33:00;3.50;;;2.10;;
23684;SDS011;12020;51.384;6.908;2023-06-14T13:35:26;2.43;;;1.90;;
23684;SDS011;12020;51.384;6.908;2023-06-14T13:37:52;2.60;;;1.90;;
23684;SDS011;12020;51.384;6.908;2023-06-14T13:40:18;2.72;;;2.13;;
23684;SDS011;12020;51.384;6.908;2023-06-14T13:42:43;2.90;;;2.10;;
23684;SDS011;12020;51.384;6.908;2023-06-14T13:45:10;2.23;;;1.97;;
23684;SDS011;12020;51.384;6.908;2023-06-14T13:47:36;2.42;;;1.90;;
23684;SDS011;12020;51.384;6.908;2023-06-14T13:50:03;2.45;;;1.80;;
23684;SDS011;12020;51.384;6.908;2023-06-14T13:52:29;2.05;;;1.85;;
23684;SDS011;12020;51.384;6.908;2023-06-14T13:54:55;2.87;;;1.80;;
23684;SDS011;12020;51.384;6.908;2023-06-14T13:57:20;3.45;;;1.90;;
23684;SDS011;12020;51.384;6.908;2023-06-14T13:59:46;2.38;;;1.80;;
23684;SDS011;12020;51.384;6.908;2023-06-14T14:02:12;2.73;;;2.07;;
23684;SDS011;12020;51.384;6.908;2023-06-14T14:04:38;2.63;;;1.83;;
23684;SDS011;12020;51.384;6.908;2023-06-14T14:07:04;2.72;;;1.90;;
23684;SDS011;12020;51.384;6.908;2023-06-14T14:09:31;3.78;;;1.90;;
23684;SDS011;12020;51.384;6.908;2023-06-14T14:11:57;2.30;;;1.77;;
23684;SDS011;12020;51.384;6.908;2023-06-14T14:14:23;2.85;;;2.00;;
23684;SDS011;12020;51.384;6.908;2023-06-14T14:16:49;2.42;;;1.80;;
23684;SDS011;12020;51.384;6.908;2023-06-14T14:19:16;2.25;;;1.98;;
23684;SDS011;12020;51.384;6.908;2023-06-14T14:21:44;2.95;;;1.80;;
23684;SDS011;12020;51.384;6.908;2023-06-14T14:24:10;2.53;;;2.10;;
23684;SDS011;12020;51.384;6.908;2023-06-14T14:26:37;2.40;;;1.90;;
23684;SDS011;12020;51.384;6.908;2023-06-14T14:29:02;2.17;;;1.80;;
23684;SDS011;12020;51.384;6.908;2023-06-14T14:31:28;2.10;;;1.90;;
23684;SDS011;12020;51.384;6.908;2023-06-14T14:33:54;3.97;;;2.00;;
23684;SDS011;12020;51.384;6.908;2023-06-14T14:36:19;3.88;;;2.10;;
23684;SDS011;12020;51.384;6.908;2023-06-14T14:38:45;2.05;;;1.90;;
23684;SDS011;12020;51.384;6.908;2023-06-14T14:41:12;2.40;;;2.20;;
23684;SDS011;12020;51.384;6.908;2023-06-14T14:43:38;2.55;;;2.22;;
23684;SDS011;12020;51.384;6.908;2023-06-14T14:46:04;3.90;;;1.97;;
23684;SDS011;12020;51.384;6.908;2023-06-14T14:48:29;2.65;;;1.90;;
23684;SDS011;12020;51.384;6.908;2023-06-14T14:50:55;2.60;;;2.17;;
23684;SDS011;12020;51.384;6.908;2023-06-14T14:53:21;3.40;;;2.00;;
23684;SDS011;12020;51.384;6.908;2023-06-14T14:55:46;2.45;;;2.25;;
23684;SDS011;12020;51.384;6.908;2023-06-14T14:58:13;2.40;;;2.20;;
23684;SDS011;12020;51.384;6.908;2023-06-14T15:00:42;3.00;;;2.03;;
23684;SDS011;12020;51.384;6.908;2023-06-14T15:03:07;2.73;;;2.10;;
23684;SDS011;12020;51.384;6.908;2023-06-14T15:05:33;3.25;;;2.20;;
23684;SDS011;12020;51.384;6.908;2023-06-14T15:07:59;3.58;;;1.90;;
23684;SDS011;12020;51.384;6.908;2023-06-14T15:10:24;2.47;;;2.00;;
23684;SDS011;12020;51.384;6.908;2023-06-14T15:12:50;2.58;;;2.15;;
23684;SDS011;12020;51.384;6.908;2023-06-14T15:15:15;2.65;;;2.00;;
23684;SDS011;12020;51.384;6.908;2023-06-14T15:17:42;2.33;;;2.10;;
23684;SDS011;12020;51.384;6.908;2023-06-14T15:20:09;2.47;;;2.28;;
23684;SDS011;12020;51.384;6.908;2023-06-14T15:22:35;2.40;;;2.20;;
23684;SDS011;12020;51.384;6.908;2023-06-14T15:25:01;4.65;;;2.20;;
23684;SDS011;12020;51.384;6.908;2023-06-14T15:27:26;4.18;;;2.30;;
23684;SDS011;12020;51.384;6.908;2023-06-14T15:29:52;2.22;;;1.95;;
23684;SDS011;12020;51.384;6.908;2023-06-14T15:32:18;2.40;;;2.20;;
23684;SDS011;12020;51.384;6.908;2023-06-14T15:34:44;2.53;;;2.33;;
23684;SDS011;12020;51.384;6.908;2023-06-14T15:37:10;2.97;;;2.20;;
23684;SDS011;12020;51.384;6.908;2023-06-14T15:39:36;4.07;;;2.20;;
23684;SDS011;12020;51.384;6.908;2023-06-14T15:42:02;2.73;;;1.80;;
23684;SDS011;12020;51.384;6.908;2023-06-14T15:44:28;4.03;;;2.10;;
23684;SDS011;12020;51.384;6.908;2023-06-14T15:46:54;3.20;;;2.03;;
23684;SDS011;12020;51.384;6.908;2023-06-14T15:49:19;2.55;;;2.35;;
23684;SDS011;12020;51.384;6.908;2023-06-14T15:51:45;2.58;;;1.95;;
23684;SDS011;12020;51.384;6.908;2023-06-14T15:54:11;4.07;;;2.20;;
23684;SDS011;12020;51.384;6.908;2023-06-14T15:59:05;2.45;;;2.25;;
23684;SDS011;12020;51.384;6.908;2023-06-14T16:01:32;3.05;;;2.33;;
23684;SDS011;12020;51.384;6.908;2023-06-14T16:03:58;3.03;;;2.10;;
23684;SDS011;12020;51.384;6.908;2023-06-14T16:06:23;3.50;;;2.03;;
23684;SDS011;12020;51.384;6.908;2023-06-14T16:08:49;14.45;;;3.17;;
23684;SDS011;12020;51.384;6.908;2023-06-14T16:11:17;4.57;;;2.58;;
23684;SDS011;12020;51.384;6.908;2023-06-14T16:13:43;2.80;;;2.30;;
23684;SDS011;12020;51.384;6.908;2023-06-14T16:16:10;4.45;;;2.35;;
23684;SDS011;12020;51.384;6.908;2023-06-14T16:18:36;11.07;;;2.95;;
23684;SDS011;12020;51.384;6.908;2023-06-14T16:21:02;9.50;;;2.93;;
23684;SDS011;12020;51.384;6.908;2023-06-14T16:23:30;20.48;;;3.75;;
23684;SDS011;12020;51.384;6.908;2023-06-14T16:25:56;6.10;;;2.70;;
23684;SDS011;12020;51.384;6.908;2023-06-14T16:28:22;4.00;;;2.53;;
23684;SDS011;12020;51.384;6.908;2023-06-14T16:30:48;4.07;;;2.30;;
23684;SDS011;12020;51.384;6.908;2023-06-14T16:33:14;3.78;;;2.25;;
23684;SDS011;12020;51.384;6.908;2023-06-14T16:39:01;3.07;;;2.30;;
23684;SDS011;12020;51.384;6.908;2023-06-14T16:41:27;2.90;;;2.40;;
23684;SDS011;12020;51.384;6.908;2023-06-14T16:43:53;2.80;;;2.20;;
23684;SDS011;12020;51.384;6.908;2023-06-14T16:46:28;2.87;;;2.10;;
23684;SDS011;12020;51.384;6.908;2023-06-14T16:48:55;3.65;;;2.20;;
23684;SDS011;12020;51.384;6.908;2023-06-14T16:51:21;2.50;;;2.30;;
23684;SDS011;12020;51.384;6.908;2023-06-14T16:53:47;2.83;;;2.20;;
23684;SDS011;12020;51.384;6.908;2023-06-14T16:56:13;2.60;;;2.20;;
23684;SDS011;12020;51.384;6.908;2023-06-14T16:58:39;2.67;;;2.08;;
23684;SDS011;12020;51.384;6.908;2023-06-14T17:01:05;2.67;;;2.20;;
23684;SDS011;12020;51.384;6.908;2023-06-14T17:03:31;3.93;;;2.30;;
23684;SDS011;12020;51.384;6.908;2023-06-14T17:05:57;2.63;;;2.13;;
23684;SDS011;12020;51.384;6.908;2023-06-14T17:08:23;3.53;;;2.00;;
23684;SDS011;12020;51.384;6.908;2023-06-14T17:10:50;3.78;;;2.42;;
23684;SDS011;12020;51.384;6.908;2023-06-14T17:13:19;2.80;;;2.22;;
23684;SDS011;12020;51.384;6.908;2023-06-14T17:15:45;2.50;;;2.15;;
23684;SDS011;12020;51.384;6.908;2023-06-14T17:18:11;3.28;;;2.35;;
23684;SDS011;12020;51.384;6.908;2023-06-14T17:20:37;2.92;;;2.22;;
23684;SDS011;12020;51.384;6.908;2023-06-14T17:23:03;4.18;;;2.38;;
23684;SDS011;12020;51.384;6.908;2023-06-14T17:25:28;4.13;;;2.28;;
23684;SDS011;12020;51.384;6.908;2023-06-14T17:27:54;2.40;;;2.20;;
23684;SDS011;12020;51.384;6.908;2023-06-14T17:30:20;2.88;;;2.15;;
23684;SDS011;12020;51.384;6.908;2023-06-14T17:32:46;3.67;;;2.33;;
23684;SDS011;12020;51.384;6.908;2023-06-14T17:35:14;2.80;;;2.07;;
23684;SDS011;12020;51.384;6.908;2023-06-14T17:37:40;3.58;;;2.20;;
23684;SDS011;12020;51.384;6.908;2023-06-14T17:40:07;2.40;;;2.20;;
23684;SDS011;12020;51.384;6.908;2023-06-14T17:42:33;2.92;;;2.30;;
23684;SDS011;12020;51.384;6.908;2023-06-14T17:44:59;2.40;;;2.20;;
23684;SDS011;12020;51.384;6.908;2023-06-14T17:47:26;3.10;;;2.30;;
23684;SDS011;12020;51.384;6.908;2023-06-14T17:49:51;2.83;;;2.10;;
23684;SDS011;12020;51.384;6.908;2023-06-14T17:52:20;3.55;;;2.20;;
23684;SDS011;12020;51.384;6.908;2023-06-14T17:54:46;2.97;;;2.00;;
23684;SDS011;12020;51.384;6.908;2023-06-14T17:57:12;2.75;;;2.08;;
23684;SDS011;12020;51.384;6.908;2023-06-14T17:59:39;4.13;;;2.28;;
23684;SDS011;12020;51.384;6.908;2023-06-14T18:02:05;2.30;;;2.10;;
23684;SDS011;12020;51.384;6.908;2023-06-14T18:04:31;2.97;;;2.20;;
23684;SDS011;12020;51.384;6.908;2023-06-14T18:06:57;2.78;;;2.20;;
23684;SDS011;12020;51.384;6.908;2023-06-14T18:09:25;2.80;;;2.03;;
23684;SDS011;12020;51.384;6.908;2023-06-14T18:11:52;2.30;;;2.10;;
23684;SDS011;12020;51.384;6.908;2023-06-14T18:14:18;2.58;;;2.05;;
23684;SDS011;12020;51.384;6.908;2023-06-14T18:16:44;2.25;;;2.03;;
23684;SDS011;12020;51.384;6.908;2023-06-14T18:19:10;2.27;;;2.07;;